createdAt,value
2019-01-24T00:02:15.839Z,100.03
2019-01-24T00:07:21.053Z,94.77
2019-01-24T00:12:26.648Z,106.37
2019-01-24T00:17:32.234Z,91.63
2019-01-24T00:22:37.812Z,92.00
2019-01-24T00:27:43.004Z,99.23
2019-01-24T00:32:48.519Z,99.73
2019-01-24T00:37:54.146Z,102.47
2019-01-24T00:42:59.401Z,94.63
2019-01-24T00:48:04.890Z,92.97
2019-01-24T00:53:10.089Z,91.83
2019-01-24T00:58:15.932Z,88.13
2019-01-24T01:03:21.127Z,100.37
2019-01-24T01:08:26.850Z,80.40
2019-01-24T01:13:33.017Z,91.60
2019-01-24T01:18:39.011Z,86.40
2019-01-24T01:23:45.552Z,88.57
2019-01-24T01:28:50.736Z,90.63
2019-01-24T01:33:55.927Z,91.17
2019-01-24T01:39:01.496Z,90.33
2019-01-24T01:44:07.059Z,83.43
2019-01-24T01:49:12.248Z,83.33
2019-01-24T01:54:17.448Z,78.67
2019-01-24T01:59:22.980Z,84.20
2019-01-24T02:04:28.285Z,85.97
2019-01-24T02:09:33.778Z,77.63
2019-01-24T02:14:39.000Z,76.67
2019-01-24T02:19:44.222Z,83.00
2019-01-24T02:24:49.430Z,78.83
2019-01-24T02:29:54.633Z,74.17
2019-01-24T02:34:59.824Z,79.43
2019-01-24T02:40:06.368Z,75.53
2019-01-24T02:45:13.962Z,80.80
2019-01-24T02:50:20.769Z,74.53
2019-01-24T02:55:25.959Z,81.57
2019-01-24T03:00:31.215Z,81.57
2019-01-24T03:05:36.704Z,71.20
2019-01-24T03:10:42.036Z,71.03
2019-01-24T03:15:47.703Z,84.03
2019-01-24T03:20:52.908Z,75.03
2019-01-24T03:25:59.189Z,74.10
2019-01-24T03:31:05.033Z,79.83
2019-01-24T03:36:10.261Z,77.27
2019-01-24T03:41:15.451Z,74.53
2019-01-24T03:46:20.643Z,71.07
2019-01-24T03:51:25.837Z,77.83
2019-01-24T03:56:31.031Z,80.03
2019-01-24T04:01:36.223Z,76.23
2019-01-24T04:06:41.431Z,77.90
2019-01-24T04:11:46.741Z,70.97
2019-01-24T04:16:52.309Z,72.93
2019-01-24T04:21:57.512Z,75.60
2019-01-24T04:27:03.158Z,82.07
2019-01-24T04:32:08.352Z,77.83
2019-01-24T04:37:13.536Z,77.80
2019-01-24T04:42:19.736Z,93.30
2019-01-24T04:47:25.340Z,81.43
2019-01-24T04:52:30.900Z,80.57
2019-01-24T04:57:36.253Z,84.53
2019-01-24T05:02:41.466Z,78.93
2019-01-24T05:07:46.664Z,79.57
2019-01-24T05:12:52.993Z,88.13
2019-01-24T05:17:58.593Z,73.33
2019-01-24T05:23:03.800Z,78.17
2019-01-24T05:28:09.005Z,83.20
2019-01-24T05:33:15.041Z,69.10
2019-01-24T05:38:20.235Z,75.77
2019-01-24T05:43:25.727Z,77.47
2019-01-24T05:48:32.723Z,78.47
2019-01-24T05:53:37.925Z,76.37
2019-01-24T05:58:43.528Z,73.00
2019-01-24T06:03:49.042Z,79.13
2019-01-24T06:08:55.034Z,81.20
2019-01-24T06:14:00.255Z,79.33
2019-01-24T06:19:05.681Z,84.43
2019-01-24T06:24:11.244Z,82.07
2019-01-24T06:29:16.569Z,69.13
2019-01-24T06:34:21.775Z,69.53
2019-01-24T06:39:27.071Z,76.90
2019-01-24T06:44:32.213Z,66.27
2019-01-24T06:49:38.562Z,75.43
2019-01-24T06:54:44.041Z,80.27
2019-01-24T06:59:49.318Z,82.63
2019-01-24T07:04:54.536Z,80.97
2019-01-24T07:10:00.152Z,82.83
2019-01-24T07:15:07.072Z,81.63
2019-01-24T07:20:12.831Z,79.40
2019-01-24T07:25:23.657Z,77.60
2019-01-24T07:30:29.260Z,82.27
2019-01-24T07:35:34.468Z,82.57
2019-01-24T07:40:39.943Z,89.30
2019-01-24T07:45:45.152Z,76.90
2019-01-24T07:50:50.454Z,75.93
2019-01-24T07:55:55.687Z,67.13
2019-01-24T08:01:00.884Z,72.33
2019-01-24T08:06:09.256Z,74.80
2019-01-24T08:11:13.556Z,86.90
2019-01-24T08:16:19.156Z,83.37
2019-01-24T08:21:24.555Z,80.40
2019-01-24T08:26:29.756Z,77.70
2019-01-24T08:31:34.998Z,76.23
2019-01-24T08:36:40.320Z,75.23
2019-01-24T08:41:47.618Z,76.40
2019-01-24T08:46:52.819Z,77.60
2019-01-24T08:51:58.584Z,73.53
2019-01-24T08:57:03.777Z,73.67
2019-01-24T09:02:09.092Z,71.53
2019-01-24T09:07:14.302Z,80.83
2019-01-24T09:12:19.540Z,77.77
2019-01-24T09:17:24.954Z,87.78
2019-01-24T09:22:30.524Z,81.53
2019-01-24T09:27:36.052Z,77.73
2019-01-24T09:32:41.388Z,75.87
2019-01-24T09:37:46.588Z,74.13
2019-01-24T09:42:51.808Z,80.00
2019-01-24T09:47:59.467Z,78.60
2019-01-24T09:53:04.678Z,76.13
2019-01-24T09:58:09.952Z,78.67
2019-01-24T10:03:15.943Z,74.90
2019-01-24T10:08:21.504Z,78.83
2019-01-24T10:13:26.708Z,77.70
2019-01-24T10:18:32.141Z,69.70
2019-01-24T10:23:37.715Z,77.57
2019-01-24T10:28:43.023Z,77.97
2019-01-24T10:33:48.688Z,69.03
2019-01-24T10:38:53.885Z,69.87
2019-01-24T10:43:59.449Z,69.10
2019-01-24T10:49:04.754Z,72.40
2019-01-24T10:54:09.959Z,67.73
2019-01-24T10:59:15.425Z,73.80
2019-01-24T11:04:20.719Z,67.77
2019-01-24T11:09:26.348Z,71.70
2019-01-24T11:14:31.571Z,70.00
2019-01-24T11:19:36.814Z,67.00
2019-01-24T11:24:42.033Z,67.00
2019-01-24T11:29:47.678Z,67.13
2019-01-24T11:34:52.910Z,62.90
2019-01-24T11:39:58.123Z,64.43
2019-01-24T11:45:03.324Z,62.63
2019-01-24T11:50:13.062Z,66.73
2019-01-24T11:55:19.667Z,68.20
2019-01-24T12:00:39.556Z,65.97
2019-01-24T12:05:44.759Z,66.80
2019-01-24T12:10:49.970Z,67.53
2019-01-24T12:15:55.202Z,67.47
2019-01-24T12:21:00.395Z,68.10
2019-01-24T12:26:06.080Z,65.73
2019-01-24T12:31:11.365Z,70.13
2019-01-24T12:36:17.253Z,68.40
2019-01-24T12:41:22.488Z,64.73
2019-01-24T12:46:27.987Z,69.77
2019-01-24T12:51:33.194Z,58.47
2019-01-24T12:56:38.523Z,69.97
2019-01-24T13:01:44.038Z,71.53
2019-01-24T13:06:49.240Z,68.57
2019-01-24T13:11:54.442Z,67.47
2019-01-24T13:17:00.079Z,64.37
2019-01-24T13:22:05.779Z,63.90
2019-01-24T13:27:11.357Z,63.03
2019-01-24T13:32:16.579Z,63.80
2019-01-24T13:37:25.792Z,65.80
2019-01-24T13:42:28.687Z,66.67
2019-01-24T13:47:34.267Z,70.83
2019-01-24T13:52:39.470Z,66.47
2019-01-24T13:57:44.782Z,70.00
2019-01-24T14:02:52.247Z,72.53
2019-01-24T14:07:57.500Z,68.10
2019-01-24T14:13:02.737Z,68.17
2019-01-24T14:18:08.086Z,63.00
2019-01-24T14:23:13.288Z,67.20
2019-01-24T14:28:18.513Z,66.03
2019-01-24T14:33:23.868Z,65.27
2019-01-24T14:38:29.139Z,66.57
2019-01-24T14:43:34.776Z,63.73
2019-01-24T14:48:40.108Z,57.23
2019-01-24T14:53:45.305Z,60.50
2019-01-24T14:58:50.508Z,62.07
2019-01-24T15:03:55.832Z,64.97
2019-01-24T15:09:01.068Z,61.83
2019-01-24T15:14:06.576Z,57.13
2019-01-24T15:19:12.511Z,63.23
2019-01-24T15:24:17.861Z,68.47
2019-01-24T15:29:23.478Z,63.53
2019-01-24T15:34:28.691Z,57.90
2019-01-24T15:39:34.204Z,63.13
2019-01-24T15:44:39.875Z,59.20
2019-01-24T15:49:45.079Z,60.53
2019-01-24T15:54:50.640Z,63.73
2019-01-24T15:59:55.897Z,61.50
2019-01-24T16:05:01.746Z,57.53
2019-01-24T16:10:10.419Z,61.50
2019-01-24T16:15:18.547Z,62.20
2019-01-24T16:20:24.818Z,59.53
2019-01-24T16:25:31.596Z,60.23
2019-01-24T16:30:37.563Z,61.00
2019-01-24T16:35:42.911Z,62.63
2019-01-24T16:40:49.068Z,60.90
2019-01-24T16:45:54.663Z,55.73
2019-01-24T16:51:01.225Z,61.70
2019-01-24T16:56:06.651Z,58.10
2019-01-24T17:01:22.236Z,62.90
2019-01-24T17:06:27.443Z,61.70
2019-01-24T17:11:33.055Z,57.63
2019-01-24T17:16:39.428Z,55.63
2019-01-24T17:21:44.639Z,58.47
2019-01-24T17:26:50.211Z,56.50
2019-01-24T17:31:55.888Z,56.30
2019-01-24T17:37:01.324Z,53.73
2019-01-24T17:42:06.850Z,56.47
2019-01-24T17:47:12.043Z,56.40
2019-01-24T17:52:17.455Z,55.40
2019-01-24T17:57:23.117Z,58.47
2019-01-24T18:02:29.184Z,51.33
2019-01-24T18:07:34.454Z,57.60
2019-01-24T18:12:39.910Z,56.43
2019-01-24T18:17:46.475Z,55.20
2019-01-24T18:22:52.082Z,61.90
2019-01-24T18:27:57.272Z,60.80
2019-01-24T18:33:02.477Z,60.67
2019-01-24T18:38:08.642Z,54.20
2019-01-24T18:43:20.655Z,62.27
2019-01-24T18:48:25.902Z,56.53
2019-01-24T18:53:31.451Z,56.93
2019-01-24T18:58:38.235Z,63.63
2019-01-24T19:03:44.594Z,56.53
2019-01-24T19:08:49.871Z,53.73
2019-01-24T19:13:55.084Z,65.13
2019-01-24T19:19:00.310Z,62.47
2019-01-24T19:24:05.626Z,62.23
2019-01-24T19:29:10.833Z,56.30
2019-01-24T19:34:16.051Z,54.67
2019-01-24T19:39:21.408Z,60.57
2019-01-24T19:44:27.693Z,54.80
2019-01-24T19:49:33.110Z,60.07
2019-01-24T19:54:38.313Z,57.43
2019-01-24T19:59:43.519Z,61.20
2019-01-24T20:04:48.735Z,57.70
2019-01-24T20:09:53.939Z,57.27
2019-01-24T20:14:59.343Z,63.50
2019-01-24T20:20:06.435Z,58.27
2019-01-24T20:25:14.044Z,60.90
2019-01-24T20:30:24.219Z,64.93
2019-01-24T20:35:41.169Z,55.97
2019-01-24T20:40:46.666Z,60.17
2019-01-24T20:45:51.867Z,60.33
2019-01-24T20:50:57.358Z,63.77
2019-01-24T20:56:03.663Z,60.27
2019-01-24T21:01:10.011Z,61.97
2019-01-24T21:06:16.251Z,54.00
2019-01-24T21:11:21.819Z,58.43
2019-01-24T21:16:27.042Z,55.33
2019-01-24T21:21:32.244Z,60.27
2019-01-24T21:26:37.891Z,53.00
2019-01-24T21:31:43.409Z,58.13
2019-01-24T21:36:48.612Z,55.30
2019-01-24T21:41:53.814Z,53.33
2019-01-24T21:46:59.485Z,56.87
2019-01-24T21:52:04.903Z,54.37
2019-01-24T21:57:10.104Z,58.27
2019-01-24T22:02:15.708Z,55.63
2019-01-24T22:07:21.392Z,55.93
2019-01-24T22:12:26.915Z,54.57
2019-01-24T22:17:32.847Z,56.63
2019-01-24T22:22:38.776Z,58.47
2019-01-24T22:27:44.620Z,57.47
2019-01-24T22:32:50.314Z,55.10
2019-01-24T22:37:55.691Z,53.70
2019-01-24T22:43:00.898Z,57.17
2019-01-24T22:48:07.461Z,57.23
2019-01-24T22:53:13.049Z,61.33
2019-01-24T22:58:18.537Z,61.40
2019-01-24T23:03:33.150Z,56.27
2019-01-24T23:08:39.250Z,59.57
2019-01-24T23:13:44.536Z,59.47
2019-01-24T23:18:50.411Z,59.93
2019-01-24T23:23:55.948Z,60.70
2019-01-24T23:29:01.643Z,63.47
2019-01-24T23:34:07.407Z,59.20
2019-01-24T23:39:12.608Z,58.53
2019-01-24T23:44:17.803Z,55.63
2019-01-24T23:49:23.771Z,57.77
2019-01-24T23:54:29.331Z,59.67
2019-01-24T23:59:34.662Z,58.80
